createdAt,value
2023-02-09T00:01:23.776Z,18.48
2023-02-09T00:03:51.093Z,18.27
2023-02-09T00:06:22.137Z,20.13
2023-02-09T00:08:49.327Z,18.25
2023-02-09T00:11:43.208Z,18.83
2023-02-09T00:14:11.265Z,17.08
2023-02-09T00:16:38.343Z,18.48
2023-02-09T00:19:05.589Z,17.30
2023-02-09T00:21:33.159Z,17.50
2023-02-09T00:24:00.405Z,19.02
2023-02-09T00:26:27.811Z,17.98
2023-02-09T00:28:55.798Z,18.20
2023-02-09T00:31:22.845Z,17.70
2023-02-09T00:33:50.632Z,18.98
2023-02-09T00:36:17.744Z,17.30
2023-02-09T00:38:45.159Z,18.70
2023-02-09T00:41:12.797Z,17.85
2023-02-09T00:43:39.819Z,18.52
2023-02-09T00:46:06.827Z,18.50
2023-02-09T00:48:34.076Z,19.27
2023-02-09T00:51:01.533Z,18.27
2023-02-09T00:53:28.789Z,18.80
2023-02-09T00:55:55.666Z,18.80
2023-02-09T00:58:22.658Z,19.13
2023-02-09T01:00:50.000Z,16.48
2023-02-09T01:03:17.146Z,17.42
2023-02-09T01:05:44.235Z,18.33
2023-02-09T01:08:11.167Z,18.15
2023-02-09T01:10:39.210Z,19.83
2023-02-09T01:13:06.521Z,18.55
2023-02-09T01:15:33.466Z,18.52
2023-02-09T01:18:00.556Z,19.40
2023-02-09T01:20:27.985Z,19.10
2023-02-09T01:22:56.345Z,18.80
2023-02-09T01:25:23.223Z,18.58
2023-02-09T01:27:51.615Z,17.80
2023-02-09T01:30:19.684Z,18.98
2023-02-09T01:32:46.614Z,17.08
2023-02-09T01:35:13.483Z,19.85
2023-02-09T01:37:40.513Z,16.90
2023-02-09T01:40:08.395Z,18.02
2023-02-09T01:42:36.486Z,19.55
2023-02-09T01:45:26.398Z,19.85
2023-02-09T01:48:02.549Z,18.75
2023-02-09T01:50:35.110Z,20.05
2023-02-09T01:53:03.692Z,19.85
2023-02-09T01:55:34.262Z,18.85
2023-02-09T01:58:12.219Z,15.95
2023-02-09T02:00:41.626Z,18.27
2023-02-09T02:03:12.124Z,18.25
2023-02-09T02:05:42.029Z,18.60
2023-02-09T02:08:13.394Z,20.08
2023-02-09T02:10:41.130Z,16.77
2023-02-09T02:13:08.167Z,19.00
2023-02-09T02:16:14.947Z,20.42
2023-02-09T02:19:19.369Z,21.08
2023-02-09T02:22:12.349Z,14.80
2023-02-09T02:25:00.418Z,19.35
2023-02-09T02:27:56.700Z,19.52
2023-02-09T02:30:56.585Z,17.20
2023-02-09T02:33:32.187Z,19.27
2023-02-09T02:36:13.569Z,20.02
2023-02-09T02:38:49.611Z,20.88
2023-02-09T02:41:30.347Z,20.52
2023-02-09T02:44:06.611Z,19.92
2023-02-09T02:46:40.217Z,16.67
2023-02-09T02:49:19.355Z,19.33
2023-02-09T02:51:49.448Z,20.42
2023-02-09T02:54:22.689Z,20.23
2023-02-09T02:56:57.866Z,17.85
2023-02-09T02:59:33.078Z,18.60
2023-02-09T03:02:09.365Z,19.92
2023-02-09T03:04:38.851Z,19.92
2023-02-09T03:07:07.189Z,21.75
2023-02-09T03:09:34.116Z,18.58
2023-02-09T03:12:18.497Z,19.95
2023-02-09T03:15:22.349Z,20.08
2023-02-09T03:18:04.147Z,21.75
2023-02-09T03:20:43.058Z,20.63
2023-02-09T03:23:27.760Z,21.30
2023-02-09T03:25:57.321Z,22.08
2023-02-09T03:28:30.629Z,21.95
2023-02-09T03:31:01.248Z,13.88
2023-02-09T03:33:31.523Z,19.85
2023-02-09T03:36:00.925Z,21.98
2023-02-09T03:38:28.289Z,22.38
2023-02-09T03:40:55.600Z,21.27
2023-02-09T03:43:42.737Z,19.65
2023-02-09T03:46:10.092Z,20.48
2023-02-09T03:48:37.092Z,18.95
2023-02-09T03:51:04.314Z,20.70
2023-02-09T03:53:31.994Z,18.20
2023-02-09T03:55:58.841Z,20.85
2023-02-09T03:58:25.816Z,18.30
2023-02-09T04:00:52.690Z,16.23
2023-02-09T04:03:19.536Z,21.10
2023-02-09T04:05:46.401Z,21.35
2023-02-09T04:08:13.244Z,22.00
2023-02-09T04:10:40.074Z,19.45
2023-02-09T04:13:06.973Z,21.15
2023-02-09T04:15:33.900Z,21.35
2023-02-09T04:18:01.180Z,20.80
2023-02-09T04:20:28.701Z,21.15
2023-02-09T04:22:55.797Z,19.13
2023-02-09T04:25:23.486Z,21.95
2023-02-09T04:27:50.437Z,20.92
2023-02-09T04:30:17.586Z,20.92
2023-02-09T04:32:44.411Z,18.92
2023-02-09T04:35:11.340Z,19.00
2023-02-09T04:37:38.325Z,20.67
2023-02-09T04:40:07.654Z,22.10
2023-02-09T04:42:34.729Z,20.83
2023-02-09T04:45:01.796Z,22.33
2023-02-09T04:47:28.650Z,21.85
2023-02-09T04:49:55.555Z,21.25
2023-02-09T04:52:22.557Z,21.42
2023-02-09T04:54:49.481Z,20.48
2023-02-09T04:57:35.206Z,20.85
2023-02-09T05:00:02.155Z,20.33
2023-02-09T05:02:29.012Z,22.35
2023-02-09T05:04:55.914Z,20.90
2023-02-09T05:07:23.302Z,21.38
2023-02-09T05:09:50.188Z,19.88
2023-02-09T05:12:17.068Z,19.88
2023-02-09T05:14:43.911Z,16.55
2023-02-09T05:17:10.824Z,20.55
2023-02-09T05:19:37.798Z,19.15
2023-02-09T05:22:04.789Z,19.17
2023-02-09T05:24:31.874Z,18.92
2023-02-09T05:26:58.783Z,16.63
2023-02-09T05:29:25.697Z,19.80
2023-02-09T05:31:52.581Z,19.48
2023-02-09T05:34:19.463Z,16.05
2023-02-09T05:36:47.821Z,18.77
2023-02-09T05:39:14.896Z,17.88
2023-02-09T05:42:00.150Z,19.08
2023-02-09T05:44:27.018Z,18.05
2023-02-09T05:46:54.122Z,19.10
2023-02-09T05:49:21.064Z,16.88
2023-02-09T05:51:47.922Z,16.80
2023-02-09T05:54:14.817Z,17.35
2023-02-09T05:56:42.252Z,16.55
2023-02-09T05:59:09.135Z,18.25
2023-02-09T06:01:36.015Z,18.40
2023-02-09T06:04:02.970Z,17.67
2023-02-09T06:06:29.975Z,15.45
2023-02-09T06:08:58.349Z,18.13
2023-02-09T06:11:25.252Z,16.98
2023-02-09T06:13:52.092Z,17.42
2023-02-09T06:16:19.077Z,17.27
2023-02-09T06:18:46.041Z,17.98
2023-02-09T06:21:13.309Z,18.70
2023-02-09T06:23:40.388Z,16.90
2023-02-09T06:26:15.411Z,17.42
2023-02-09T06:28:42.952Z,18.33
2023-02-09T06:31:11.203Z,17.88
2023-02-09T06:33:41.088Z,16.75
2023-02-09T06:36:09.072Z,17.45
2023-02-09T06:38:38.234Z,18.58
2023-02-09T06:41:06.937Z,17.95
2023-02-09T06:43:34.088Z,18.33
2023-02-09T06:46:12.939Z,18.05
2023-02-09T06:48:40.615Z,19.52
2023-02-09T06:51:12.691Z,16.10
2023-02-09T06:53:40.877Z,15.48
2023-02-09T06:56:08.484Z,17.73
2023-02-09T06:58:38.054Z,17.52
2023-02-09T07:01:07.064Z,17.52
2023-02-09T07:03:35.518Z,17.73
2023-02-09T07:06:12.164Z,19.27
2023-02-09T07:08:42.212Z,17.45
2023-02-09T07:11:12.161Z,18.97
2023-02-09T07:13:39.160Z,17.30
2023-02-09T07:16:08.349Z,17.42
2023-02-09T07:18:35.875Z,17.77
2023-02-09T07:21:09.288Z,18.45
2023-02-09T07:23:39.233Z,17.02
2023-02-09T07:26:10.982Z,17.57
2023-02-09T07:28:38.039Z,17.40
2023-02-09T07:31:08.064Z,16.48
2023-02-09T07:33:35.786Z,16.63
2023-02-09T07:36:08.495Z,15.93
2023-02-09T07:38:35.999Z,17.45
2023-02-09T07:41:04.518Z,16.20
2023-02-09T07:43:31.954Z,16.52
2023-02-09T07:46:07.180Z,17.00
2023-02-09T07:48:35.719Z,16.45
2023-02-09T07:51:02.664Z,16.65
2023-02-09T07:53:30.120Z,14.98
2023-02-09T07:55:57.403Z,15.50
2023-02-09T07:58:24.531Z,16.50
2023-02-09T08:00:51.879Z,16.15
2023-02-09T08:03:24.118Z,16.67
2023-02-09T08:06:02.620Z,15.60
2023-02-09T08:08:29.681Z,14.90
2023-02-09T08:10:58.351Z,15.77
2023-02-09T08:13:29.348Z,16.30
2023-02-09T08:18:31.093Z,16.63
2023-02-09T08:20:59.640Z,16.63
2023-02-09T08:23:31.508Z,15.95
2023-02-09T08:26:02.192Z,15.98
2023-02-09T08:28:42.887Z,14.75
2023-02-09T08:31:15.324Z,12.27
2023-02-09T08:33:44.441Z,14.48
2023-02-09T08:36:12.655Z,16.00
2023-02-09T08:38:40.462Z,13.00
2023-02-09T08:41:10.623Z,15.20
2023-02-09T08:43:37.582Z,13.50
2023-02-09T08:46:06.096Z,15.98
2023-02-09T08:48:35.811Z,12.15
2023-02-09T08:51:03.308Z,15.40
2023-02-09T08:53:30.516Z,16.50
2023-02-09T08:55:57.880Z,15.27
2023-02-09T08:58:26.443Z,17.40
2023-02-09T09:00:57.344Z,17.75
2023-02-09T09:06:00.299Z,17.20
2023-02-09T09:08:27.329Z,17.63
2023-02-09T09:10:54.561Z,17.23
2023-02-09T09:13:22.012Z,18.08
2023-02-09T09:15:49.151Z,13.25
2023-02-09T09:18:16.984Z,14.80
2023-02-09T09:20:43.871Z,15.48
2023-02-09T09:23:11.599Z,16.42
2023-02-09T09:25:39.441Z,19.40
2023-02-09T09:28:07.084Z,18.17
2023-02-09T09:30:34.462Z,18.02
2023-02-09T09:33:01.693Z,17.08
2023-02-09T09:35:29.269Z,17.85
2023-02-09T09:37:57.430Z,17.70
2023-02-09T09:40:29.905Z,18.65
2023-02-09T09:43:13.481Z,19.10
2023-02-09T09:45:40.603Z,19.88
2023-02-09T09:48:22.927Z,19.25
2023-02-09T09:50:52.576Z,19.55
2023-02-09T09:53:28.832Z,16.00
2023-02-09T09:55:59.473Z,18.23
2023-02-09T09:58:27.804Z,16.92
2023-02-09T10:00:54.917Z,16.08
2023-02-09T10:03:23.508Z,14.57
2023-02-09T10:05:54.057Z,18.83
2023-02-09T10:08:29.905Z,19.52
2023-02-09T10:11:06.774Z,19.42
2023-02-09T10:13:44.620Z,18.33
2023-02-09T10:16:17.025Z,18.83
2023-02-09T10:18:44.579Z,17.83
2023-02-09T10:21:14.528Z,16.75
2023-02-09T10:23:45.320Z,18.80
2023-02-09T10:26:27.147Z,17.10
2023-02-09T10:28:56.734Z,17.25
2023-02-09T10:31:36.422Z,14.07
2023-02-09T10:34:16.478Z,15.80
2023-02-09T10:36:53.563Z,17.13
2023-02-09T10:39:30.243Z,17.15
2023-02-09T10:42:12.388Z,18.25
2023-02-09T10:44:40.426Z,17.45
2023-02-09T10:47:20.623Z,17.08
2023-02-09T10:50:00.239Z,17.07
2023-02-09T10:52:33.437Z,15.55
2023-02-09T10:55:17.015Z,15.90
2023-02-09T10:57:43.883Z,17.17
2023-02-09T11:00:16.621Z,15.02
2023-02-09T11:02:55.458Z,16.60
2023-02-09T11:05:22.492Z,13.98
2023-02-09T11:07:55.987Z,14.63
2023-02-09T11:10:23.513Z,13.75
2023-02-09T11:12:50.408Z,14.88
2023-02-09T11:15:33.280Z,15.43
2023-02-09T11:18:12.580Z,14.23
2023-02-09T11:20:57.784Z,13.10
2023-02-09T11:23:59.399Z,14.23
2023-02-09T11:26:51.039Z,16.17
2023-02-09T11:29:42.169Z,14.35
2023-02-09T11:35:11.819Z,15.57
2023-02-09T11:38:05.482Z,18.33
2023-02-09T11:40:32.773Z,15.18
2023-02-09T11:43:08.275Z,15.52
2023-02-09T11:45:39.989Z,16.98
2023-02-09T11:48:31.669Z,16.45
2023-02-09T11:51:19.421Z,20.27
2023-02-09T11:54:10.602Z,17.52
2023-02-09T11:56:46.429Z,17.13
2023-02-09T11:59:39.343Z,18.35
2023-02-09T12:02:15.521Z,15.95
2023-02-09T12:04:59.436Z,18.40
2023-02-09T12:08:05.800Z,19.05
2023-02-09T12:10:49.889Z,19.90
2023-02-09T12:13:55.427Z,18.27
2023-02-09T12:16:26.645Z,18.40
2023-02-09T12:18:55.621Z,20.33
2023-02-09T12:21:38.331Z,17.20
2023-02-09T12:24:28.101Z,19.48
2023-02-09T12:26:56.642Z,21.98
2023-02-09T12:29:26.099Z,20.67
2023-02-09T12:32:17.245Z,19.13
2023-02-09T12:34:52.872Z,19.50
2023-02-09T12:37:28.896Z,22.08
2023-02-09T12:40:04.447Z,16.95
2023-02-09T12:42:43.284Z,20.90
2023-02-09T12:45:33.734Z,18.52
2023-02-09T12:48:09.934Z,20.77
2023-02-09T12:50:42.877Z,20.08
2023-02-09T12:53:22.116Z,20.90
2023-02-09T12:56:04.156Z,18.73
2023-02-09T12:58:35.438Z,20.75
2023-02-09T13:01:02.377Z,20.83
2023-02-09T13:03:30.533Z,19.38
2023-02-09T13:06:01.692Z,19.50
2023-02-09T13:08:34.013Z,18.92
2023-02-09T13:11:38.724Z,18.67
2023-02-09T13:14:09.697Z,20.55
2023-02-09T13:19:28.756Z,17.42
2023-02-09T13:22:30.186Z,16.50
2023-02-09T13:24:59.894Z,16.92
2023-02-09T13:27:28.360Z,17.38
2023-02-09T13:29:57.489Z,16.85
2023-02-09T13:32:24.313Z,15.95
2023-02-09T13:34:56.780Z,17.77
2023-02-09T13:37:34.109Z,18.38
2023-02-09T13:40:10.094Z,17.60
2023-02-09T13:42:37.235Z,18.10
2023-02-09T13:45:17.534Z,17.52
2023-02-09T13:47:45.890Z,16.05
2023-02-09T13:50:20.068Z,17.67
2023-02-09T13:52:47.273Z,15.60
2023-02-09T13:55:21.341Z,16.23
2023-02-09T13:57:53.176Z,17.90
2023-02-09T14:00:36.588Z,15.35
2023-02-09T14:03:12.647Z,16.95
2023-02-09T14:05:41.328Z,17.38
2023-02-09T14:08:09.463Z,16.17
2023-02-09T14:10:36.917Z,17.15
2023-02-09T14:13:28.713Z,18.02
2023-02-09T14:16:07.715Z,15.50
2023-02-09T14:18:49.810Z,17.10
2023-02-09T14:21:19.258Z,14.88
2023-02-09T14:24:08.663Z,13.25
2023-02-09T14:26:42.941Z,13.85
2023-02-09T14:29:21.172Z,15.32
2023-02-09T14:31:55.434Z,14.07
2023-02-09T14:34:22.371Z,11.93
2023-02-09T14:37:00.644Z,14.85
2023-02-09T14:39:31.038Z,13.48
2023-02-09T14:41:59.745Z,14.35
2023-02-09T14:44:27.498Z,13.55
2023-02-09T14:46:57.050Z,14.45
2023-02-09T14:49:24.902Z,13.32
2023-02-09T14:52:06.404Z,13.32
2023-02-09T14:54:36.347Z,12.40
2023-02-09T14:57:04.455Z,13.20
2023-02-09T14:59:31.544Z,13.60
2023-02-09T15:01:58.628Z,11.98
2023-02-09T15:04:25.654Z,11.75
2023-02-09T15:07:01.994Z,11.98
2023-02-09T15:09:38.296Z,13.40
2023-02-09T15:12:07.496Z,10.82
2023-02-09T15:14:45.976Z,11.20
2023-02-09T15:17:16.018Z,9.73
2023-02-09T15:19:43.171Z,11.20
2023-02-09T15:22:13.697Z,12.07
2023-02-09T15:24:42.517Z,13.43
2023-02-09T15:27:33.740Z,11.52
2023-02-09T15:30:04.098Z,12.20
2023-02-09T15:34:58.293Z,11.07
2023-02-09T15:37:28.994Z,12.13
2023-02-09T15:40:41.942Z,11.43
2023-02-09T15:43:39.015Z,12.05
2023-02-09T15:46:25.724Z,11.50
2023-02-09T15:48:52.696Z,10.80
2023-02-09T15:51:19.779Z,11.27
2023-02-09T15:53:47.550Z,11.60
2023-02-09T15:56:14.984Z,11.70
2023-02-09T15:58:44.924Z,12.95
2023-02-09T16:01:14.599Z,12.32
2023-02-09T16:03:41.530Z,12.43
2023-02-09T16:06:16.633Z,14.38
2023-02-09T16:08:44.362Z,12.68
2023-02-09T16:11:40.467Z,13.40
2023-02-09T16:14:16.267Z,10.13
2023-02-09T16:16:44.804Z,12.85
2023-02-09T16:19:12.518Z,13.70
2023-02-09T16:21:41.166Z,13.65
2023-02-09T16:24:15.314Z,13.32
2023-02-09T16:26:42.241Z,13.30
2023-02-09T16:29:15.121Z,13.65
2023-02-09T16:31:42.107Z,12.50
2023-02-09T16:34:15.225Z,13.55
2023-02-09T16:36:42.925Z,11.80
2023-02-09T16:39:19.292Z,12.95
2023-02-09T16:41:47.380Z,13.68
2023-02-09T16:44:24.274Z,14.00
2023-02-09T16:46:56.516Z,13.05
2023-02-09T16:49:37.692Z,14.18
2023-02-09T16:52:25.925Z,15.25
2023-02-09T16:54:55.756Z,13.63
2023-02-09T16:57:23.527Z,14.40
2023-02-09T16:59:51.273Z,13.68
2023-02-09T17:02:29.876Z,12.90
2023-02-09T17:04:58.093Z,12.50
2023-02-09T17:07:35.599Z,13.93
2023-02-09T17:10:21.138Z,14.40
2023-02-09T17:12:48.588Z,13.80
2023-02-09T17:15:30.124Z,15.60
2023-02-09T17:18:12.573Z,14.45
2023-02-09T17:20:49.758Z,13.38
2023-02-09T17:23:29.620Z,13.82
2023-02-09T17:26:07.862Z,13.70
2023-02-09T17:28:48.921Z,11.35
2023-02-09T17:34:16.324Z,14.23
2023-02-09T17:36:59.213Z,13.30
2023-02-09T17:39:33.971Z,14.88
2023-02-09T17:42:07.774Z,14.13
2023-02-09T17:44:46.918Z,15.25
2023-02-09T17:47:24.460Z,14.93
2023-02-09T17:49:58.253Z,13.32
2023-02-09T17:52:35.193Z,14.15
2023-02-09T17:55:11.543Z,15.50
2023-02-09T17:57:39.096Z,12.40
2023-02-09T18:00:13.001Z,14.73
2023-02-09T18:02:45.572Z,14.38
2023-02-09T18:05:21.599Z,12.75
2023-02-09T18:07:56.939Z,15.52
2023-02-09T18:10:23.841Z,14.52
2023-02-09T18:12:50.765Z,14.55
2023-02-09T18:15:27.257Z,14.13
2023-02-09T18:17:55.181Z,15.48
2023-02-09T18:20:25.853Z,15.88
2023-02-09T18:22:53.004Z,12.38
2023-02-09T18:25:24.588Z,14.95
2023-02-09T18:27:52.223Z,14.80
2023-02-09T18:30:26.533Z,16.83
2023-02-09T18:32:56.091Z,16.33
2023-02-09T18:35:25.629Z,15.50
2023-02-09T18:37:52.705Z,16.42
2023-02-09T18:40:20.172Z,16.50
2023-02-09T18:42:47.285Z,15.45
2023-02-09T18:45:16.370Z,16.55
2023-02-09T18:47:43.867Z,16.30
2023-02-09T18:50:14.715Z,15.77
2023-02-09T18:52:54.245Z,14.57
2023-02-09T18:55:24.562Z,15.75
2023-02-09T18:57:54.297Z,14.05
2023-02-09T19:00:21.816Z,15.63
2023-02-09T19:02:49.577Z,14.32
2023-02-09T19:05:18.526Z,15.13
2023-02-09T19:07:47.262Z,15.77
2023-02-09T19:10:18.231Z,15.38
2023-02-09T19:15:13.665Z,13.65
2023-02-09T19:17:41.112Z,15.13
2023-02-09T19:20:12.478Z,15.45
2023-02-09T19:22:41.573Z,15.70
2023-02-09T19:25:09.039Z,16.90
2023-02-09T19:27:36.060Z,16.27
2023-02-09T19:30:03.061Z,14.48
2023-02-09T19:32:30.030Z,14.63
2023-02-09T19:34:56.966Z,15.52
2023-02-09T19:37:24.844Z,17.05
2023-02-09T19:40:04.336Z,17.40
2023-02-09T19:42:32.403Z,15.65
2023-02-09T19:44:59.737Z,14.75
2023-02-09T19:47:27.528Z,16.48
2023-02-09T19:49:56.365Z,15.15
2023-02-09T19:52:23.963Z,16.02
2023-02-09T19:54:51.265Z,16.58
2023-02-09T19:57:19.753Z,16.02
2023-02-09T19:59:46.763Z,14.00
2023-02-09T20:02:15.010Z,16.85
2023-02-09T20:04:43.086Z,16.38
2023-02-09T20:07:14.253Z,16.55
2023-02-09T20:09:41.992Z,15.05
2023-02-09T20:12:08.909Z,16.80
2023-02-09T20:14:35.824Z,17.13
2023-02-09T20:17:02.747Z,16.50
2023-02-09T20:19:29.907Z,15.27
2023-02-09T20:21:57.456Z,15.70
2023-02-09T20:24:24.650Z,16.83
2023-02-09T20:26:51.691Z,15.85
2023-02-09T20:29:19.522Z,15.93
2023-02-09T20:31:46.543Z,16.58
2023-02-09T20:34:15.187Z,15.40
2023-02-09T20:36:44.890Z,14.30
2023-02-09T20:39:15.937Z,16.38
2023-02-09T20:42:05.722Z,15.60
2023-02-09T20:44:54.107Z,14.73
2023-02-09T20:47:20.982Z,13.68
2023-02-09T20:49:47.881Z,14.48
2023-02-09T20:52:14.831Z,14.23
2023-02-09T20:54:41.683Z,11.60
2023-02-09T20:57:08.817Z,16.60
2023-02-09T20:59:35.943Z,16.13
2023-02-09T21:02:02.809Z,15.30
2023-02-09T21:04:30.377Z,15.50
2023-02-09T21:06:58.795Z,13.70
2023-02-09T21:09:29.331Z,15.85
2023-02-09T21:12:02.338Z,13.80
2023-02-09T21:14:41.597Z,16.88
2023-02-09T21:17:09.537Z,16.88
2023-02-09T21:19:38.310Z,16.55
2023-02-09T21:22:05.415Z,14.07
2023-02-09T21:24:33.955Z,16.58
2023-02-09T21:27:04.100Z,16.42
2023-02-09T21:29:31.018Z,16.73
2023-02-09T21:32:11.089Z,15.88
2023-02-09T21:34:39.600Z,15.77
2023-02-09T21:37:10.743Z,16.73
2023-02-09T21:39:37.676Z,15.30
2023-02-09T21:42:25.415Z,18.92
2023-02-09T21:44:55.044Z,16.17
2023-02-09T21:47:28.220Z,16.85
2023-02-09T21:49:57.692Z,17.70
2023-02-09T21:52:25.878Z,16.15
2023-02-09T21:54:53.878Z,16.30
2023-02-09T21:57:38.357Z,17.05
2023-02-09T22:00:14.562Z,15.38
2023-02-09T22:02:42.899Z,18.02
2023-02-09T22:05:11.122Z,17.05
2023-02-09T22:07:50.209Z,14.05
2023-02-09T22:10:20.774Z,18.55
2023-02-09T22:12:49.007Z,17.52
2023-02-09T22:15:18.172Z,17.98
2023-02-09T22:17:45.094Z,18.60
2023-02-09T22:20:12.104Z,17.85
2023-02-09T22:22:39.906Z,18.15
2023-02-09T22:25:07.267Z,19.80
2023-02-09T22:27:34.254Z,18.67
2023-02-09T22:30:03.556Z,17.25
2023-02-09T22:32:31.228Z,17.58
2023-02-09T22:34:58.155Z,19.00
2023-02-09T22:37:25.151Z,19.77
2023-02-09T22:39:52.007Z,19.45
2023-02-09T22:42:18.881Z,19.55
2023-02-09T22:44:45.954Z,19.05
2023-02-09T22:47:12.823Z,20.15
2023-02-09T22:49:39.777Z,19.85
2023-02-09T22:52:06.710Z,21.10
2023-02-09T22:54:33.686Z,21.05
2023-02-09T22:57:00.578Z,18.40
2023-02-09T22:59:27.522Z,19.30
2023-02-09T23:01:54.474Z,17.80
2023-02-09T23:04:21.398Z,16.77
2023-02-09T23:06:48.355Z,19.17
2023-02-09T23:09:15.399Z,19.90
2023-02-09T23:11:42.663Z,20.25
2023-02-09T23:14:11.270Z,15.98
2023-02-09T23:16:40.225Z,19.60
2023-02-09T23:19:09.570Z,19.23
2023-02-09T23:21:39.580Z,20.88
2023-02-09T23:24:07.270Z,19.83
2023-02-09T23:26:34.508Z,18.27
2023-02-09T23:29:04.248Z,18.67
2023-02-09T23:31:31.311Z,21.38
2023-02-09T23:33:58.402Z,20.20
2023-02-09T23:36:28.892Z,20.10
2023-02-09T23:38:58.725Z,21.48
2023-02-09T23:41:26.638Z,19.00
2023-02-09T23:43:54.530Z,21.60
2023-02-09T23:46:23.725Z,22.27
2023-02-09T23:48:55.464Z,22.42
2023-02-09T23:51:26.682Z,19.25
2023-02-09T23:53:54.783Z,20.92
2023-02-09T23:56:22.784Z,19.17
2023-02-09T23:58:51.470Z,15.73
